Weather at Raleigh County Memorial Airport

Public forecast

Using degrees Fahrenheit for public forecast. Weather courtesy of forecast.io.

Current aviation weather report (METAR) for Raleigh County Memorial Airport

Retrieved 2021/06/15 21:51 UTC (40 minutes ago):

KBKW 152151Z AUTO 30009KT 10SM CLR 21/12 A3000 RMK AO2 SLP137 T02110122 TSNO

Aviation forecast (TAF) for Raleigh County Memorial Airport

Retrieved 2021/06/15 18:24 UTC (4 hours ago):

TAF KBKW 151722Z 1518/1618 35011KT P6SM SCT035 BKN045 FM152100 33011KT P6SM SCT090 FM160000 VRB03KT P6SM BKN100 FM160800 27002KT 6SM BR OVC100 FM161200 33005KT P6SM OVC250 FM161600 34010G17KT P6SM SKC